Albia, IA

5:55 AM CST on March 05, 2015 (GMT -0600)
IADOT West of Eddyville (HW 137) | Change Station
CLOSE
Current Station
Personal Weather Station
Location: Eddyville, IA
Elevation: 799 ft
Nearby Weather Stations

Elev 799 ft 41.15 °N, 92.64 °W | Updated 35 minutes ago

Partly Cloudy
Partly Cloudy
4 °F
Feels Like -7 °F
N
6
Wind Variable Wind from North
Gusts 9.0 mph

Today
High -- | Low -- °F
--% Chance of Precip.
Yesterday
High -- | Low -- °F
Precip. -- in
6:39 AM 6:06 PM
Full, 100% visible
Pressure 30.53 in
Visibility 10.0 miles
Clouds Few 3200 ft
Windchill -7 °F
Dew Point -3 °F
Humidity 71%
Rainfall in
Snow Depth Not available.
UV 0 out of 12
Pollen .50 out of 12
Air Quality Not available.
Flu Activity Not available.
METAR KOTM 051053Z AUTO 35005KT 10SM FEW032 M17/M21 A3048 RMK AO2 SLP338 T11671211

More Conditions Fewer Conditions

Pressure 30.53 in
Visibility 10.0 miles
Clouds Few 3200 ft
Windchill -7 °F
Dew Point -3 °F
Humidity 71%
Rainfall in
Snow Depth Not available.
UV 0 out of 12
Pollen .50 out of 12
Air Quality Not available.
Flu Activity Not available.
METAR KOTM 051053Z AUTO 35005KT 10SM FEW032 M17/M21 A3048 RMK AO2 SLP338 T11671211

More Conditions Fewer Conditions

10-Day Weather Forecast

Almanac

Astronomy

Mar. 05, 2015 Rise Set
Actual Time
Civil Twilight
Nautical Twilight
Astronomical Twilight
Moon
Length of Visible Light
Length of Day
Tomorrow will be .
, % of the Moon is Illuminated

Today's Extremes

State Highs State Lows

Community

WunderPhotos

Upload Photos

1,802,716 photos uploaded!

WunderBlogs® & News

Nearby

Air Quality

  Air Quality AQ Index Pollutant
Not available.

Snow Depth

Station Depth Elevation

Earthquake Activity

City Distance Mag. Time & Date
Minimum magnitude displayed is 2.5.

Coastal Water Temperatures

Place Temperature

Nearby Weather Stations